Pancevo, Serbia
Current Conditions -  °F | °C
As of 1:00 PM on Friday 24 Oct 2014 (Local Time) from LYBE Reporting Station
Scattered Clouds Scattered Clouds  
Wind Chill: 54°   Ceiling: Unl
Heat Index: 54°   Visibility: 6mi
Dew Point: 39°   Wind: 5mph
Humidity: 58%   Direction: 120°ESE
Pressure: 29.97"   Gusts: NA
Location:  44.87°N, 20.66°E
Report Text: LYBE 241100Z 12004KT 020V160 9999 SCT033 12/04 Q1015 NOSIG
Loading
Personal Weather Stations






























Interactive Weather Map New forecast layout! Learn more

10-Day Weather Forecast

Advertisements
Track Severe Weather on mobile